Time;durP1;ratioP1;P1;durP2;ratioP2;P2;SDS_P1;SDS_P2;PMS_P1;PMS_P2;Temp;Humidity;BMP_temperature;BMP_pressure;BME280_temperature;BME280_humidity;BME280_pressure;Samples;Min_cycle;Max_cycle;Signal;HPM_P1;HPM_P2
2023/01/07 00:00:19;;;;;;;1.23;1.13;;;10.10;99.90;;;;;;6327991;23;19998;-63
2023/01/07 00:02:55;;;;;;;1.30;1.20;;;10.10;99.90;;;;;;6329367;23;20020;-63
2023/01/07 00:05:35;;;;;;;1.50;1.20;;;9.90;99.90;;;;;;6214753;23;20062;-63
2023/01/07 00:08:07;;;;;;;1.50;1.40;;;9.90;99.90;;;;;;6154372;23;20000;-63
2023/01/07 00:10:43;;;;;;;1.52;1.05;;;9.80;99.90;;;;;;6153717;23;20244;-62
2023/01/07 00:13:16;;;;;;;2.00;1.25;;;9.80;99.90;;;;;;6153044;24;20000;-64
2023/01/07 00:15:48;;;;;;;1.35;1.20;;;9.70;99.90;;;;;;6178551;24;20039;-65
2023/01/07 00:18:27;;;;;;;1.75;1.65;;;9.80;99.90;;;;;;6176438;24;20019;-63
2023/01/07 00:21:01;;;;;;;1.38;1.25;;;9.70;99.90;;;;;;6149336;24;20008;-64
2023/01/07 00:23:34;;;;;;;1.80;1.70;;;9.90;99.90;;;;;;6176147;24;20004;-63
2023/01/07 00:26:13;;;;;;;1.60;1.15;;;9.80;99.90;;;;;;6178611;24;20040;-63
2023/01/07 00:28:50;;;;;;;2.42;1.42;;;9.70;99.90;;;;;;6153029;24;20004;-63
2023/01/07 00:31:24;;;;;;;1.25;1.15;;;9.70;99.90;;;;;;6152563;24;20019;-63
2023/01/07 00:36:36;;;;;;;1.48;1.23;;;9.60;99.90;;;;;;6174726;23;20007;-63
2023/01/07 00:39:14;;;;;;;1.58;1.33;;;9.60;99.90;;;;;;6152997;24;20282;-63
2023/01/07 00:44:36;;;;;;;1.40;1.30;;;9.60;99.90;;;;;;6176120;24;20008;-62
2023/01/07 00:47:10;;;;;;;1.75;1.40;;;9.60;99.90;;;;;;6175932;24;20000;-62
2023/01/07 00:49:42;;;;;;;1.52;1.30;;;9.60;99.90;;;;;;6153450;24;20212;-63
2023/01/07 00:52:13;;;;;;;1.40;1.30;;;9.60;99.90;;;;;;6150658;23;20016;-63
2023/01/07 00:54:47;;;;;;;1.48;1.38;;;9.60;99.90;;;;;;6154819;23;20010;-63
2023/01/07 00:57:20;;;;;;;1.77;1.40;;;9.60;99.90;;;;;;6173954;23;20003;-65
2023/01/07 00:59:56;;;;;;;1.45;1.13;;;9.50;99.90;;;;;;6177513;24;20263;-63
2023/01/07 01:02:37;;;;;;;1.80;1.25;;;9.40;99.90;;;;;;6275697;23;20035;-63
2023/01/07 01:05:09;;;;;;;2.30;1.05;;;9.30;99.90;;;;;;6420480;22;20035;-63
2023/01/07 01:07:42;;;;;;;1.63;1.42;;;9.30;99.90;;;;;;6432485;23;20007;-62
2023/01/07 01:10:19;;;;;;;1.73;1.63;;;9.20;99.90;;;;;;6420831;23;20000;-63
2023/01/07 01:12:55;;;;;;;2.38;1.30;;;9.20;99.90;;;;;;6396485;23;20004;-63
2023/01/07 01:15:36;;;;;;;1.65;1.50;;;9.00;99.90;;;;;;6422743;23;20060;-63
2023/01/07 01:18:08;;;;;;;1.40;1.30;;;8.90;99.90;;;;;;6395197;23;20011;-65
2023/01/07 01:20:47;;;;;;;1.30;1.20;;;8.90;99.90;;;;;;6417709;23;19997;-64
2023/01/07 01:23:26;;;;;;;1.95;1.33;;;9.00;99.90;;;;;;6420335;23;20007;-64
2023/01/07 01:26:19;;;;;;;1.92;1.20;;;9.00;99.90;;;;;;6445096;23;20497;-63
2023/01/07 01:28:53;;;;;;;1.33;1.20;;;9.00;99.90;;;;;;6421285;23;20051;-64
2023/01/07 01:31:26;;;;;;;1.30;1.20;;;8.90;99.90;;;;;;6395267;23;20011;-63
2023/01/07 01:34:00;;;;;;;1.85;1.52;;;8.90;99.90;;;;;;6394949;23;20009;-63
2023/01/07 01:36:37;;;;;;;1.95;1.60;;;8.70;99.90;;;;;;6419792;23;20007;-64
2023/01/07 01:39:15;;;;;;;2.92;1.80;;;8.70;99.90;;;;;;6421056;23;20007;-65
2023/01/07 01:41:51;;;;;;;2.08;1.60;;;8.60;99.90;;;;;;6394731;23;20055;-62
2023/01/07 01:44:47;;;;;;;1.35;1.25;;;8.60;99.90;;;;;;6421364;23;19993;-64
2023/01/07 01:47:30;;;;;;;1.85;1.27;;;8.60;99.90;;;;;;6420484;23;20056;-64
2023/01/07 01:50:45;;;;;;;1.42;1.33;;;8.70;99.90;;;;;;6422435;23;20040;-63
2023/01/07 01:53:36;;;;;;;3.08;1.52;;;8.80;99.90;;;;;;6422442;23;20059;-62
2023/01/07 01:56:18;;;;;;;2.45;1.83;;;8.80;99.90;;;;;;6393022;23;20011;-62
2023/01/07 01:59:23;;;;;;;3.67;1.80;;;8.80;99.90;;;;;;6395068;23;20048;-63
2023/01/07 02:01:55;;;;;;;2.00;1.67;;;8.90;99.90;;;;;;6419310;23;20011;-63
2023/01/07 02:04:30;;;;;;;2.50;1.63;;;8.90;99.90;;;;;;6380629;23;20003;-64
2023/01/07 02:07:10;;;;;;;2.53;1.98;;;8.90;99.90;;;;;;6399034;23;19996;-62
2023/01/07 02:09:48;;;;;;;2.13;1.30;;;9.00;99.90;;;;;;6423102;23;19995;-65
2023/01/07 02:12:27;;;;;;;3.38;1.70;;;9.00;99.90;;;;;;6372366;23;20072;-63
2023/01/07 02:15:24;;;;;;;1.80;1.70;;;9.10;99.90;;;;;;6396028;23;19992;-63
2023/01/07 02:18:21;;;;;;;1.98;1.50;;;9.10;99.90;;;;;;6421353;23;20004;-64
2023/01/07 02:21:10;;;;;;;2.03;1.42;;;9.10;99.90;;;;;;6421279;23;20048;-64
2023/01/07 02:24:07;;;;;;;1.63;1.38;;;9.10;99.90;;;;;;6421400;23;20007;-63
2023/01/07 02:26:48;;;;;;;1.83;1.52;;;8.90;99.90;;;;;;6421769;23;20181;-65
2023/01/07 02:29:40;;;;;;;2.00;1.67;;;8.90;99.90;;;;;;6396252;23;20027;-63
2023/01/07 02:32:12;;;;;;;1.30;1.20;;;8.80;99.90;;;;;;6394368;23;20020;-64
2023/01/07 02:35:09;;;;;;;2.58;1.65;;;8.70;99.90;;;;;;6419591;23;20011;-63
2023/01/07 02:37:58;;;;;;;1.90;1.35;;;8.70;99.90;;;;;;6395837;23;20068;-62
2023/01/07 02:40:43;;;;;;;1.50;1.40;;;8.70;99.90;;;;;;6395554;23;19999;-64
2023/01/07 02:43:21;;;;;;;1.80;1.50;;;8.70;99.90;;;;;;6395974;23;20064;-65
2023/01/07 02:46:12;;;;;;;1.77;1.67;;;8.80;99.90;;;;;;6419434;23;20349;-63
2023/01/07 02:48:47;;;;;;;1.92;1.65;;;8.80;99.90;;;;;;6396450;23;19999;-62
2023/01/07 02:51:29;;;;;;;2.13;1.92;;;8.80;99.90;;;;;;6418128;23;20315;-62
2023/01/07 02:54:01;;;;;;;1.88;1.67;;;8.90;99.90;;;;;;6395335;23;20004;-65
2023/01/07 02:56:50;;;;;;;1.60;1.38;;;8.90;99.90;;;;;;6394658;23;20055;-73
2023/01/07 02:59:58;;;;;;;1.80;1.45;;;8.90;99.90;;;;;;6421785;23;20067;-62
2023/01/07 03:02:41;;;;;;;1.73;1.55;;;8.90;99.90;;;;;;6393860;23;20324;-63
2023/01/07 03:05:38;;;;;;;2.58;1.73;;;8.90;99.90;;;;;;6402228;23;20050;-62
2023/01/07 03:08:19;;;;;;;1.70;1.60;;;8.90;99.90;;;;;;6389323;23;20052;-63
2023/01/07 03:11:05;;;;;;;2.88;2.10;;;8.90;99.90;;;;;;6395860;23;19999;-61
2023/01/07 03:13:39;;;;;;;2.40;2.03;;;8.90;99.90;;;;;;6419042;23;20087;-62
2023/01/07 03:16:26;;;;;;;2.15;1.88;;;9.00;99.90;;;;;;6419693;23;20060;-63
2023/01/07 03:19:13;;;;;;;3.25;2.28;;;9.00;99.90;;;;;;6421905;23;20064;-63
2023/01/07 03:21:51;;;;;;;1.52;1.40;;;9.00;99.90;;;;;;6392771;23;20192;-63
2023/01/07 03:24:29;;;;;;;2.40;2.00;;;8.90;99.90;;;;;;6394400;23;20056;-63
2023/01/07 03:27:03;;;;;;;2.90;1.85;;;8.90;99.90;;;;;;6395099;23;20003;-63
2023/01/07 03:29:35;;;;;;;1.63;1.52;;;9.00;99.90;;;;;;6421815;23;20052;-63
2023/01/07 03:32:23;;;;;;;2.78;1.52;;;9.00;99.90;;;;;;6394572;23;20004;-66
2023/01/07 03:34:57;;;;;;;2.92;1.80;;;9.00;99.90;;;;;;6419638;23;20011;-64
2023/01/07 03:37:35;;;;;;;3.78;2.17;;;8.90;99.90;;;;;;6394034;23;20057;-63
2023/01/07 03:40:10;;;;;;;2.10;1.83;;;8.90;99.90;;;;;;6397143;23;19999;-64
2023/01/07 03:42:47;;;;;;;2.20;1.63;;;8.90;99.90;;;;;;6397451;23;20003;-61
2023/01/07 03:45:23;;;;;;;1.67;1.50;;;8.80;99.90;;;;;;6397011;23;20218;-63
2023/01/07 03:47:56;;;;;;;1.95;1.70;;;8.80;99.90;;;;;;6396373;23;20004;-64
2023/01/07 03:50:27;;;;;;;2.08;1.70;;;8.80;99.90;;;;;;6420116;23;20062;-63
2023/01/07 03:53:07;;;;;;;2.22;1.55;;;8.90;99.90;;;;;;6421743;23;20034;-64
2023/01/07 03:55:38;;;;;;;3.05;2.03;;;8.90;99.90;;;;;;6395668;23;20056;-62
2023/01/07 03:58:09;;;;;;;4.22;2.13;;;8.90;99.90;;;;;;6395138;23;20228;-63
2023/01/07 04:00:49;;;;;;;3.40;2.20;;;8.80;99.90;;;;;;6396765;23;20011;-64
2023/01/07 04:03:23;;;;;;;2.10;1.90;;;8.90;99.90;;;;;;6397591;23;20059;-64
2023/01/07 04:06:01;;;;;;;1.73;1.48;;;8.90;99.90;;;;;;6387779;23;20059;-64
2023/01/07 04:08:32;;;;;;;;;;;8.90;99.90;;;;;;6422356;23;20116;-62
2023/01/07 04:11:08;;;;;;;1.85;1.67;;;8.90;99.90;;;;;;6446733;23;19955;-63
2023/01/07 04:13:46;;;;;;;1.70;1.60;;;8.90;99.90;;;;;;6421992;23;20015;-63
2023/01/07 04:16:25;;;;;;;2.30;1.65;;;9.00;99.90;;;;;;6422363;23;20189;-63
2023/01/07 04:19:01;;;;;;;1.90;1.70;;;9.00;99.90;;;;;;6446431;23;20003;-64
2023/01/07 04:21:33;;;;;;;3.90;2.10;;;9.00;99.90;;;;;;6420440;23;20056;-64
2023/01/07 04:24:05;;;;;;;2.25;1.85;;;9.00;99.90;;;;;;6372413;23;20005;-63
2023/01/07 04:26:39;;;;;;;2.35;1.92;;;9.00;99.90;;;;;;6446595;23;20103;-63
2023/01/07 04:29:12;;;;;;;2.20;1.70;;;8.90;99.90;;;;;;6422116;23;20302;-63
2023/01/07 04:31:46;;;;;;;2.97;2.30;;;8.90;99.90;;;;;;6396488;23;20027;-62
2023/01/07 04:34:17;;;;;;;3.60;2.30;;;8.90;99.90;;;;;;6420890;23;19993;-64
2023/01/07 04:36:48;;;;;;;4.05;2.72;;;8.90;99.90;;;;;;6421068;23;20047;-63
2023/01/07 04:39:23;;;;;;;5.78;3.05;;;9.00;99.90;;;;;;6421388;23;20007;-61
2023/01/07 04:41:57;;;;;;;6.10;3.30;;;9.00;99.90;;;;;;6421897;23;20453;-63
2023/01/07 04:44:28;;;;;;;6.55;3.78;;;9.00;99.90;;;;;;6396334;23;20001;-61
2023/01/07 04:47:03;;;;;;;8.05;3.60;;;9.00;99.90;;;;;;6421379;23;19993;-63
2023/01/07 04:49:39;;;;;;;6.88;4.35;;;9.00;99.90;;;;;;6396047;23;20011;-63
2023/01/07 04:52:16;;;;;;;4.80;2.90;;;9.00;99.90;;;;;;6417992;23;20091;-63
2023/01/07 04:54:52;;;;;;;5.22;2.70;;;9.00;99.90;;;;;;6421687;23;20007;-62
2023/01/07 04:57:29;;;;;;;2.00;1.80;;;9.10;99.90;;;;;;6444842;23;20344;-64
2023/01/07 05:00:09;;;;;;;2.33;2.10;;;9.20;99.90;;;;;;6397619;23;19996;-62
2023/01/07 05:02:45;;;;;;;2.33;1.90;;;9.30;99.90;;;;;;6444460;22;20013;-62
2023/01/07 05:05:16;;;;;;;2.15;1.63;;;9.30;99.90;;;;;;6404851;23;20218;-62
2023/01/07 05:07:47;;;;;;;4.20;1.92;;;9.40;99.90;;;;;;6384694;23;20087;-63
2023/01/07 05:10:22;;;;;;;1.42;1.33;;;9.50;99.90;;;;;;6395716;23;20063;-64
2023/01/07 05:12:53;;;;;;;;;;;9.60;99.90;;;;;;6421498;23;20008;-61
2023/01/07 05:15:24;;;;;;;2.13;1.88;;;9.60;99.90;;;;;;6421043;23;19906;-63
2023/01/07 05:17:55;;;;;;;2.50;1.95;;;9.50;99.90;;;;;;6420348;23;20000;-63
2023/01/07 05:20:27;;;;;;;2.08;1.88;;;9.50;99.90;;;;;;6392330;23;20392;-61
2023/01/07 05:22:58;;;;;;;2.78;1.80;;;9.50;99.90;;;;;;6422856;23;20011;-62
2023/01/07 05:25:33;;;;;;;3.22;1.77;;;9.60;99.90;;;;;;6419927;23;20358;-64
2023/01/07 05:28:13;;;;;;;1.63;1.52;;;9.60;99.90;;;;;;6396074;23;20056;-62
2023/01/07 05:30:51;;;;;;;2.92;1.80;;;9.60;99.90;;;;;;6421076;23;20456;-61
2023/01/07 05:33:27;;;;;;;3.15;1.98;;;9.50;99.90;;;;;;6396370;23;20004;-64
2023/01/07 05:35:58;;;;;;;4.03;2.08;;;9.50;99.90;;;;;;6442355;23;20075;-63
2023/01/07 05:38:32;;;;;;;2.80;2.20;;;9.50;99.90;;;;;;6421007;23;20000;-63
2023/01/07 05:41:07;;;;;;;2.40;2.00;;;9.50;99.90;;;;;;6395832;23;20055;-64
2023/01/07 05:43:38;;;;;;;2.72;1.98;;;9.40;99.90;;;;;;6420699;23;20175;-62
2023/01/07 05:46:12;;;;;;;1.73;1.60;;;9.40;99.90;;;;;;6394696;23;20028;-63
2023/01/07 05:48:49;;;;;;;2.25;2.00;;;9.40;99.90;;;;;;6421605;23;20001;-60
2023/01/07 05:51:20;;;;;;;2.35;2.10;;;9.30;99.90;;;;;;6417087;23;20000;-62
2023/01/07 05:53:56;;;;;;;2.40;2.00;;;9.20;99.90;;;;;;6396081;23;20009;-62
2023/01/07 05:56:37;;;;;;;2.03;1.83;;;9.10;99.90;;;;;;6443933;23;20005;-62
2023/01/07 05:59:11;;;;;;;3.17;1.88;;;8.90;99.90;;;;;;6395761;23;19999;-63
2023/01/07 06:01:51;;;;;;;2.20;2.00;;;8.70;99.90;;;;;;6395112;23;20055;-63
2023/01/07 06:04:26;;;;;;;3.42;2.38;;;8.50;99.90;;;;;;6404374;22;20060;-65
2023/01/07 06:07:13;;;;;;;2.03;1.83;;;8.30;99.90;;;;;;6373823;23;19997;-62
2023/01/07 06:09:46;;;;;;;2.50;2.15;;;8.20;99.90;;;;;;6420187;23;19999;-65
2023/01/07 06:12:19;;;;;;;2.55;1.95;;;8.10;99.90;;;;;;6420114;23;20008;-66
2023/01/07 06:14:53;;;;;;;3.22;2.40;;;7.90;99.90;;;;;;6395254;23;20011;-64
2023/01/07 06:17:27;;;;;;;5.55;2.00;;;7.80;99.90;;;;;;6422944;23;20067;-65
2023/01/07 06:19:59;;;;;;;2.80;1.63;;;7.70;99.90;;;;;;6419695;23;20065;-64
2023/01/07 06:22:30;;;;;;;3.95;2.00;;;7.70;99.90;;;;;;6393418;23;20011;-62
2023/01/07 06:25:03;;;;;;;3.40;2.33;;;7.50;99.90;;;;;;6395020;23;20383;-62
2023/01/07 06:27:37;;;;;;;3.50;2.50;;;7.40;99.90;;;;;;6393645;23;20010;-62
2023/01/07 06:30:10;;;;;;;4.15;2.25;;;7.30;99.90;;;;;;6395337;23;20006;-62
2023/01/07 06:32:42;;;;;;;2.45;1.95;;;7.10;99.90;;;;;;6443646;23;20253;-62
2023/01/07 06:35:16;;;;;;;2.60;1.98;;;6.90;99.90;;;;;;6442989;23;20063;-63
2023/01/07 06:37:50;;;;;;;2.50;1.90;;;6.90;99.90;;;;;;6395061;23;20015;-63
2023/01/07 06:40:24;;;;;;;3.15;2.17;;;6.90;99.90;;;;;;6395407;23;20068;-62
2023/01/07 06:42:58;;;;;;;2.92;1.90;;;7.00;99.90;;;;;;6393913;23;20004;-63
2023/01/07 06:45:29;;;;;;;;;;;6.90;99.90;;;;;;6394982;23;20011;-62
2023/01/07 06:48:01;;;;;;;1.88;1.40;;;6.90;99.90;;;;;;6421590;23;20151;-62
2023/01/07 06:50:35;;;;;;;2.03;1.55;;;6.80;99.90;;;;;;6369630;23;20081;-62
2023/01/07 06:53:08;;;;;;;2.10;1.70;;;6.80;99.90;;;;;;6419873;23;20020;-62
2023/01/07 06:55:39;;;;;;;2.00;1.77;;;6.70;99.90;;;;;;6393783;23;20060;-62
2023/01/07 06:58:10;;;;;;;3.03;1.90;;;6.80;99.90;;;;;;6370377;23;20542;-65
2023/01/07 07:00:46;;;;;;;4.45;2.60;;;6.70;99.90;;;;;;6419335;23;20007;-63
2023/01/07 07:03:19;;;;;;;2.28;2.03;;;6.70;99.90;;;;;;6419507;23;20012;-63
2023/01/07 07:05:53;;;;;;;2.65;2.13;;;6.70;99.90;;;;;;6403945;22;20013;-63
2023/01/07 07:08:27;;;;;;;3.58;2.13;;;6.70;99.90;;;;;;6392043;23;20467;-65
2023/01/07 07:10:58;;;;;;;5.43;2.47;;;6.60;99.90;;;;;;6394731;23;19999;-63
2023/01/07 07:13:29;;;;;;;2.50;2.13;;;6.60;99.90;;;;;;6443867;23;20611;-66
2023/01/07 07:16:01;;;;;;;3.40;2.55;;;6.50;99.90;;;;;;6393623;23;20000;-63
2023/01/07 07:18:33;;;;;;;2.92;2.42;;;6.50;99.90;;;;;;6420892;23;19989;-61
2023/01/07 07:21:10;;;;;;;4.30;2.60;;;6.50;99.90;;;;;;6401292;22;20013;-63
2023/01/07 07:23:46;;;;;;;3.28;2.35;;;6.50;99.90;;;;;;6431295;23;20063;-62
2023/01/07 07:26:17;;;;;;;3.47;2.83;;;6.50;99.90;;;;;;6420110;23;19992;-66
2023/01/07 07:28:51;;;;;;;3.30;3.00;;;6.60;99.90;;;;;;6420896;23;20044;-63
2023/01/07 07:31:22;;;;;;;3.67;2.73;;;6.80;99.90;;;;;;6443516;23;20000;-63
2023/01/07 07:33:56;;;;;;;3.08;2.17;;;6.80;99.90;;;;;;6402450;23;20019;-64
2023/01/07 07:36:27;;;;;;;3.10;2.75;;;6.80;99.90;;;;;;6389956;23;19993;-64
2023/01/07 07:39:09;;;;;;;5.65;3.45;;;6.90;99.90;;;;;;6394698;23;19993;-62
2023/01/07 07:41:40;;;;;;;3.55;3.00;;;7.10;99.90;;;;;;6393005;23;20263;-64
2023/01/07 07:44:16;;;;;;;6.63;3.20;;;7.30;99.90;;;;;;6367363;22;19992;-65
2023/01/07 07:46:47;;;;;;;6.53;3.97;;;7.50;99.90;;;;;;6393543;23;20019;-65
2023/01/07 07:49:18;;;;;;;6.15;3.80;;;7.70;99.90;;;;;;6393814;22;20247;-66
2023/01/07 07:51:55;;;;;;;5.78;3.50;;;7.90;99.90;;;;;;6372150;23;20017;-66
2023/01/07 07:54:28;;;;;;;4.43;3.35;;;8.10;99.90;;;;;;6370878;22;20015;-63
2023/01/07 07:57:02;;;;;;;5.25;2.85;;;8.40;99.90;;;;;;6399462;22;20083;-65
2023/01/07 07:59:36;;;;;;;5.85;2.83;;;8.60;99.90;;;;;;6435027;22;20473;-63
2023/01/07 08:02:18;;;;;;;4.78;3.40;;;8.70;99.90;;;;;;6407264;22;20016;-64
2023/01/07 08:04:54;;;;;;;3.60;2.63;;;8.80;99.90;;;;;;6380978;22;20012;-62
2023/01/07 08:07:28;;;;;;;5.22;2.70;;;8.90;99.90;;;;;;6401287;22;20022;-62
2023/01/07 08:10:02;;;;;;;4.35;3.13;;;9.00;99.90;;;;;;6395731;22;20011;-65
2023/01/07 08:12:41;;;;;;;4.90;3.13;;;9.10;99.90;;;;;;6363814;22;20023;-64
2023/01/07 08:15:12;;;;;;;4.55;3.15;;;9.10;99.90;;;;;;6419856;22;20051;-64
2023/01/07 08:17:44;;;;;;;7.20;3.90;;;9.20;99.90;;;;;;6394695;22;20055;-63
2023/01/07 08:20:16;;;;;;;5.82;3.35;;;9.20;99.90;;;;;;6389417;22;20079;-63
2023/01/07 08:22:47;;;;;;;4.45;3.00;;;9.20;99.90;;;;;;6400027;23;20354;-63
2023/01/07 08:25:19;;;;;;;3.90;3.15;;;9.30;99.90;;;;;;6420452;23;20007;-65
2023/01/07 08:27:52;;;;;;;4.65;3.65;;;9.40;99.90;;;;;;6392622;22;20012;-64
2023/01/07 08:30:31;;;;;;;6.27;4.00;;;9.60;99.90;;;;;;6344249;22;20004;-63
2023/01/07 08:33:08;;;;;;;5.47;4.00;;;9.80;99.90;;;;;;6356812;23;20598;-63
2023/01/07 08:35:39;;;;;;;8.55;4.38;;;9.90;99.90;;;;;;6402879;23;20372;-62
2023/01/07 08:38:10;;;;;;;4.57;3.58;;;10.00;99.90;;;;;;6420082;23;20064;-63
2023/01/07 08:40:50;;;;;;;4.70;3.38;;;10.00;99.90;;;;;;6381000;22;20009;-63
2023/01/07 08:43:29;;;;;;;6.43;3.13;;;10.20;99.90;;;;;;6381371;23;20015;-64
2023/01/07 08:46:02;;;;;;;3.75;2.47;;;10.40;99.90;;;;;;6376992;23;20028;-63
2023/01/07 08:48:42;;;;;;;2.97;2.42;;;10.70;99.90;;;;;;6384352;22;20012;-64
2023/01/07 08:51:16;;;;;;;2.80;2.50;;;11.10;99.90;;;;;;6401132;23;20023;-62
2023/01/07 08:53:47;;;;;;;2.63;1.77;;;11.10;85.80;;;;;;6388844;23;20023;-64
2023/01/07 08:56:22;;;;;;;5.60;5.10;;;11.20;99.90;;;;;;6421900;23;20015;-64
2023/01/07 08:58:58;;;;;;;2.25;2.08;;;11.30;99.90;;;;;;6410935;23;20011;-62
2023/01/07 09:01:32;;;;;;;3.35;3.05;;;11.20;99.90;;;;;;6408979;22;20012;-63
2023/01/07 09:04:12;;;;;;;2.65;2.45;;;11.10;99.90;;;;;;6370957;23;19997;-65
2023/01/07 09:06:46;;;;;;;1.98;1.88;;;11.10;99.90;;;;;;6377261;23;20012;-66
2023/01/07 09:09:20;;;;;;;2.00;1.80;;;11.30;99.90;;;;;;6364312;23;20016;-63
2023/01/07 09:12:02;;;;;;;2.85;2.50;;;11.50;44.90;;;;;;6395568;22;20019;-65
2023/01/07 09:14:43;;;;;;;4.38;3.10;;;11.50;99.90;;;;;;6373401;23;20213;-64
2023/01/07 09:17:14;;;;;;;5.50;3.80;;;11.30;47.60;;;;;;6395546;23;20015;-63
2023/01/07 09:19:48;;;;;;;5.43;4.25;;;10.90;66.60;;;;;;6434269;22;20012;-65
2023/01/07 09:22:22;;;;;;;4.43;3.83;;;10.50;82.00;;;;;;6413035;23;20000;-64
2023/01/07 09:24:53;;;;;;;5.10;3.63;;;10.60;55.70;;;;;;6444959;23;19996;-63
2023/01/07 09:27:29;;;;;;;5.35;3.28;;;10.70;52.80;;;;;;6420188;23;20083;-66
2023/01/07 09:30:00;;;;;;;3.60;3.13;;;10.80;24.60;;;;;;6421275;23;20551;-64
2023/01/07 09:32:37;;;;;;;4.50;3.65;;;11.10;66.50;;;;;;6444215;23;20008;-67
2023/01/07 09:35:11;;;;;;;5.72;4.22;;;11.00;58.30;;;;;;6369122;23;20080;-66
2023/01/07 09:37:42;;;;;;;4.78;3.72;;;11.20;71.20;;;;;;6420622;23;20395;-64
2023/01/07 09:40:39;;;;;;;5.13;3.45;;;11.60;15.50;;;;;;6420707;23;20291;-65
2023/01/07 09:43:16;;;;;;;4.13;3.17;;;11.60;90.30;;;;;;6394549;23;20000;-65
2023/01/07 09:45:54;;;;;;;4.53;3.25;;;11.90;66.20;;;;;;6432622;23;20052;-62
2023/01/07 09:48:36;;;;;;;3.92;3.03;;;12.00;97.40;;;;;;6395626;23;20000;-64
2023/01/07 09:51:26;;;;;;;4.10;3.15;;;12.30;99.90;;;;;;6416647;23;20072;-64
2023/01/07 09:54:01;;;;;;;3.55;2.88;;;12.50;99.90;;;;;;6421869;23;20323;-65
2023/01/07 09:56:34;;;;;;;3.78;3.17;;;12.60;99.90;;;;;;6419843;23;20003;-65
2023/01/07 09:59:11;;;;;;;4.45;2.88;;;12.60;99.90;;;;;;6420285;23;20312;-64
2023/01/07 10:02:07;;;;;;;8.48;3.20;;;12.60;99.90;;;;;;6441652;22;20660;-64
2023/01/07 10:04:41;;;;;;;;;;;12.70;99.90;;;;;;6435776;22;20348;-64
2023/01/07 10:07:37;;;;;;;4.00;3.05;;;12.70;99.90;;;;;;6391034;23;20226;-65
2023/01/07 10:10:47;;;;;;;3.40;2.53;;;12.60;99.90;;;;;;6395578;23;20450;-65
2023/01/07 10:13:37;;;;;;;3.55;2.65;;;12.90;99.90;;;;;;6419744;23;20010;-65
2023/01/07 10:16:17;;;;;;;4.70;3.08;;;13.10;99.90;;;;;;6421243;23;19999;-64
2023/01/07 10:19:11;;;;;;;3.97;3.22;;;13.10;99.90;;;;;;6396061;23;20056;-65
2023/01/07 10:22:01;;;;;;;4.50;2.78;;;12.90;99.90;;;;;;6392623;23;20050;-66
2023/01/07 10:24:51;;;;;;;6.63;3.05;;;12.80;97.90;;;;;;6432813;23;20047;-65
2023/01/07 10:27:42;;;;;;;3.20;2.88;;;12.30;99.90;;;;;;6433553;23;20052;-63
2023/01/07 10:30:38;;;;;;;2.63;2.25;;;12.40;94.40;;;;;;6421516;23;20283;-68
2023/01/07 10:33:25;;;;;;;3.05;2.75;;;12.10;95.20;;;;;;6422253;23;20003;-65
2023/01/07 10:36:22;;;;;;;2.92;2.38;;;11.70;93.90;;;;;;6417741;23;20003;-65
2023/01/07 10:39:08;;;;;;;3.17;2.50;;;11.60;1.00;;;;;;6395312;23;20001;-63
2023/01/07 10:41:58;;;;;;;4.05;2.33;;;11.40;1.00;;;;;;6395370;23;20084;-63
2023/01/07 10:44:40;;;;;;;3.78;2.55;;;11.30;1.00;;;;;;6394209;23;20001;-63
2023/01/07 10:47:30;;;;;;;3.10;2.35;;;11.40;1.00;;;;;;6396166;23;20308;-63
2023/01/07 10:50:27;;;;;;;1.92;1.55;;;11.90;10.20;;;;;;6418814;23;20006;-65
2023/01/07 10:53:56;;;;;;;2.92;1.65;;;12.10;27.30;;;;;;6419620;23;20000;-62
2023/01/07 10:56:36;;;;;;;4.13;2.70;;;12.10;37.90;;;;;;6355470;23;20002;-63
2023/01/07 10:59:20;;;;;;;2.67;2.17;;;12.10;50.20;;;;;;6356683;23;21439;-63
2023/01/07 11:01:55;;;;;;;7.60;3.42;;;12.20;48.00;;;;;;6329681;23;20060;-63
2023/01/07 11:04:31;;;;;;;5.13;3.45;;;12.20;66.20;;;;;;6319569;23;20053;-64
2023/01/07 11:07:15;;;;;;;6.10;3.60;;;12.80;54.70;;;;;;6418726;23;20002;-64
2023/01/07 11:09:47;;;;;;;4.55;2.60;;;13.80;99.90;;;;;;6450171;23;20055;-65
2023/01/07 11:12:47;;;;;;;4.47;2.50;;;15.40;99.90;;;;;;6452706;23;20040;-65
2023/01/07 11:15:23;;;;;;;2.72;2.25;;;17.10;99.90;;;;;;6426398;23;20000;-63
2023/01/07 11:18:20;;;;;;;3.50;2.40;;;17.90;99.90;;;;;;6409859;22;20016;-64
2023/01/07 11:20:53;;;;;;;5.40;1.77;;;19.00;99.90;;;;;;6390010;23;19992;-63
2023/01/07 11:23:28;;;;;;;4.45;2.05;;;18.60;99.90;;;;;;6386436;22;20015;-64
2023/01/07 11:26:31;;;;;;;2.40;2.20;;;18.50;99.90;;;;;;6449802;23;20010;-64
2023/01/07 11:29:25;;;;;;;2.10;1.90;;;18.90;99.90;;;;;;6451199;23;19995;-67
2023/01/07 11:32:06;;;;;;;2.25;2.03;;;19.50;99.90;;;;;;6474394;22;20019;-65
2023/01/07 11:34:59;;;;;;;2.80;2.45;;;19.30;99.90;;;;;;6449258;23;20007;-64
2023/01/07 11:37:39;;;;;;;3.60;2.40;;;18.60;99.90;;;;;;6450535;23;20055;-64
2023/01/07 11:40:11;;;;;;;2.08;1.88;;;18.90;99.90;;;;;;6426077;23;19996;-66
2023/01/07 11:42:48;;;;;;;3.22;2.25;;;19.10;99.90;;;;;;6449939;23;20147;-64
2023/01/07 11:45:25;;;;;;;2.75;2.38;;;18.90;99.90;;;;;;6426126;23;20063;-65
2023/01/07 11:48:08;;;;;;;2.83;2.28;;;18.90;99.90;;;;;;6475915;22;20015;-63
2023/01/07 11:51:08;;;;;;;2.97;2.22;;;19.30;99.90;;;;;;6448901;23;20011;-66
2023/01/07 11:53:40;;;;;;;3.05;2.40;;;18.90;99.90;;;;;;6426364;23;20365;-64
2023/01/07 11:56:18;;;;;;;2.50;2.15;;;19.60;99.90;;;;;;6425432;23;20056;-65
2023/01/07 11:59:11;;;;;;;2.40;2.20;;;19.70;99.90;;;;;;6454514;22;20051;-64
2023/01/07 12:01:49;;;;;;;3.13;2.75;;;19.20;99.90;;;;;;6451963;22;20016;-62
2023/01/07 12:04:25;;;;;;;4.07;3.00;;;19.30;99.90;;;;;;6439558;22;20373;-64
2023/01/07 12:07:18;;;;;;;5.63;3.40;;;18.90;99.90;;;;;;6420239;23;20052;-63
2023/01/07 12:09:51;;;;;;;5.10;3.90;;;16.80;99.90;;;;;;6419863;23;20060;-65
2023/01/07 12:12:37;;;;;;;5.40;4.03;;;17.20;99.90;;;;;;6396201;23;19992;-61
2023/01/07 12:15:22;;;;;;;6.50;4.15;;;17.70;99.90;;;;;;6396560;23;20449;-64
2023/01/07 12:18:14;;;;;;;;;;;18.90;99.90;;;;;;6422241;23;20000;-62
2023/01/07 12:21:19;;;;;;;5.60;4.20;;;18.90;99.90;;;;;;6418483;23;19904;-63
2023/01/07 12:24:05;;;;;;;5.45;4.10;;;18.70;99.90;;;;;;6395686;23;20006;-64
2023/01/07 12:26:54;;;;;;;6.72;4.07;;;17.80;99.90;;;;;;6418352;23;20335;-63
2023/01/07 12:29:45;;;;;;;6.35;4.05;;;17.20;99.90;;;;;;6419139;23;19996;-63
2023/01/07 12:32:19;;;;;;;7.63;4.00;;;15.00;99.90;;;;;;6419712;23;19997;-64
2023/01/07 12:35:16;;;;;;;6.40;4.30;;;15.20;99.90;;;;;;6395728;23;20004;-63
2023/01/07 12:38:00;;;;;;;6.28;3.65;;;16.80;99.90;;;;;;6420071;23;20048;-66
2023/01/07 12:40:39;;;;;;;4.88;3.42;;;17.90;99.90;;;;;;6395675;23;20084;-67
2023/01/07 12:43:49;;;;;;;4.95;3.60;;;17.40;99.90;;;;;;6421097;23;20222;-63
2023/01/07 12:46:27;;;;;;;6.07;4.13;;;16.90;99.90;;;;;;6356789;23;20065;-62
2023/01/07 12:49:17;;;;;;;4.63;3.58;;;17.50;99.90;;;;;;6357343;23;20001;-64
2023/01/07 12:52:06;;;;;;;5.43;3.78;;;17.70;99.90;;;;;;6332556;23;20008;-64
2023/01/07 12:54:59;;;;;;;5.45;3.92;;;17.50;99.90;;;;;;6331793;23;20528;-62
2023/01/07 12:57:38;;;;;;;5.45;3.90;;;17.30;99.90;;;;;;6330887;23;20242;-64
2023/01/07 13:00:27;;;;;;;5.22;3.67;;;16.80;99.90;;;;;;6332191;23;20001;-66
2023/01/07 13:03:23;;;;;;;4.57;3.33;;;16.50;99.90;;;;;;6332684;23;20009;-64
2023/01/07 13:06:00;;;;;;;4.05;3.05;;;16.10;99.90;;;;;;6338216;23;20039;-64
2023/01/07 13:08:50;;;;;;;5.78;3.28;;;16.70;99.90;;;;;;6306046;23;19997;-65
2023/01/07 13:14:42;;;;;;;3.10;2.85;;;18.10;99.90;;;;;;6355226;23;19998;-63
2023/01/07 13:17:18;;;;;;;2.60;2.40;;;18.00;99.90;;;;;;6356335;23;20101;-64
2023/01/07 13:19:53;;;;;;;2.97;2.63;;;17.40;99.90;;;;;;6353185;23;20014;-64
2023/01/07 13:22:24;;;;;;;3.70;3.17;;;16.20;99.90;;;;;;6420449;22;20006;-65
2023/01/07 13:25:20;;;;;;;2.95;2.35;;;15.10;99.90;;;;;;6409166;22;20016;-64
2023/01/07 13:28:37;;;;;;;4.15;2.85;;;14.60;99.90;;;;;;6445108;23;19992;-63
2023/01/07 13:31:38;;;;;;;2.70;2.22;;;15.00;99.90;;;;;;6420995;23;20003;-65
2023/01/07 13:34:49;;;;;;;4.20;2.25;;;15.20;99.90;;;;;;6419942;23;20325;-63
2023/01/07 13:37:48;;;;;;;3.60;2.80;;;15.20;99.90;;;;;;6393050;23;19997;-63
2023/01/07 13:40:44;;;;;;;3.08;2.50;;;15.20;99.90;;;;;;6395911;23;20324;-63
2023/01/07 13:43:18;;;;;;;2.97;2.50;;;14.70;99.90;;;;;;6395999;23;20001;-61
2023/01/07 13:46:10;;;;;;;2.92;2.60;;;14.60;99.90;;;;;;6395013;23;20310;-64
2023/01/07 13:48:51;;;;;;;3.10;2.45;;;14.80;99.90;;;;;;6419534;23;20217;-64
2023/01/07 13:51:35;;;;;;;2.95;2.50;;;14.20;99.90;;;;;;6417212;23;20297;-65
2023/01/07 13:54:11;;;;;;;3.58;2.67;;;13.90;99.90;;;;;;6446643;22;20321;-64
2023/01/07 13:56:45;;;;;;;2.72;2.28;;;13.30;99.90;;;;;;6419525;23;20003;-64
2023/01/07 13:59:48;;;;;;;2.80;2.35;;;12.70;99.90;;;;;;6419490;23;20340;-63
2023/01/07 14:02:26;;;;;;;2.83;2.20;;;12.40;45.30;;;;;;6366010;22;20014;-63
2023/01/07 14:05:10;;;;;;;2.40;2.20;;;12.10;27.70;;;;;;6404456;22;20018;-62
2023/01/07 14:07:56;;;;;;;2.92;2.28;;;11.90;32.40;;;;;;6426634;23;20508;-62